Arctic Fury — WDE9335 — position and weather

sailwx.info

Track history (hours):
 
Tides and Currents Weather Stations Pressure Air Temp Water Temp Dewpoint Dewpoint Depression Visibility Wind Speed Wind Dir Waves Ship Positions

Arctic Fury

Owner: Fury Group Inc, Seattle, WA. More information available from US FCC via Universal Licensing System and Coast Guard Vessel Documentation Center.

Last reported at 2017-May-22 21:00 UTC. Time now 2017-May-22 21:26 UTC.
Position N 46°30' W 124°31'.

Length 43 m; draft 5 m.

Type: Fishing. MMSI: 366468000.

Date/timePositionNaut miles runAvg speedWind from/ knotsBaromVisibWave heightAir tempDewpointWater temp
2017-May-22 21:00N 46°30' W 124°31'2 3.1
2017-May-22 20:30N 46°29' W 124°32'2 3.2
2017-May-22 20:01N 46°27' W 124°32'2 3.2
2017-May-22 19:30N 46°26' W 124°34'2 3.3
2017-May-22 19:01N 46°24' W 124°35'1 1.9
2017-May-22 18:31N 46°24' W 124°35'5 9.3
2017-May-22 18:00N 46°28' W 124°34'2 3.3
2017-May-22 17:31N 46°29' W 124°32'1 2.5
2017-May-22 17:00N 46°30' W 124°32'1 2.9
2017-May-22 16:31N 46°32' W 124°32'2 3.2
2017-May-22 16:01N 46°33' W 124°32'2 3.4
2017-May-22 15:30N 46°34' W 124°34'2 3.6
2017-May-22 15:01N 46°33' W 124°37'4 4.1
2017-May-22 14:01N 46°37' W 124°40'3 6.6
2017-May-22 13:30N 46°40' W 124°39'5 9.6
2017-May-22 13:01N 46°43' W 124°34'5 9.7
2017-May-22 12:31N 46°46' W 124°28'5 9.7
2017-May-22 12:01N 46°49' W 124°23'5 9.8
2017-May-22 11:30N 46°53' W 124°17'510.7
2017-May-22 11:01N 46°55' W 124°10'3 5.3
2017-May-22 10:30N 46°54' W 124°06'0 0.0
2017-May-22 10:01N 46°54' W 124°06'0 0.0
2017-May-22 09:30N 46°54' W 124°06'0 0.0
2017-May-22 09:00N 46°54' W 124°06'0 0.0
2017-May-22 08:30N 46°54' W 124°06'0 0.0
2017-May-22 08:01N 46°54' W 124°06'0 0.0
2017-May-22 07:30N 46°54' W 124°06'0 0.0
2017-May-22 07:00N 46°54' W 124°06'0 0.0
2017-May-22 06:30N 46°54' W 124°06'0 0.0
2017-May-22 06:00N 46°54' W 124°06'0 0.0
2017-May-22 05:31N 46°54' W 124°06'0 0.0
2017-May-22 04:59N 46°54' W 124°06'0 0.0
2017-May-22 04:31N 46°54' W 124°06'0 0.0
2017-May-22 04:01N 46°54' W 124°06'0 0.0
2017-May-22 03:30N 46°54' W 124°06'0 0.0
2017-May-22 02:59N 46°54' W 124°06'0 0.0
2017-May-22 02:28N 46°54' W 124°06'0 0.0
2017-May-22 02:00N 46°54' W 124°06'0 0.0
2017-May-22 01:28N 46°54' W 124°06'0 0.0
2017-May-22 01:01N 46°54' W 124°06'0 0.0
2017-May-22 00:30N 46°54' W 124°06'0 0.0
2017-May-21 23:59N 46°54' W 124°06'0 0.0
2017-May-21 23:31N 46°54' W 124°06'0 0.0
2017-May-21 23:00N 46°54' W 124°06'0 0.0
2017-May-21 22:30N 46°54' W 124°06'0 0.0
2017-May-21 21:57N 46°54' W 124°06'0 0.0
2017-May-21 21:30N 46°54' W 124°06'0 0.0
2017-May-21 21:00N 46°54' W 124°06'0 0.0
2017-May-21 20:30N 46°54' W 124°06'0 0.4
2017-May-21 20:00N 46°55' W 124°06'3 6.6
2017-May-21 19:31N 46°55' W 124°11'4 8.7
2017-May-21 19:00N 46°55' W 124°18'5 9.1
2017-May-21 18:30N 46°55' W 124°24'5 9.3
2017-May-21 18:00N 46°55' W 124°31'4 9.1
2017-May-21 17:30N 46°55' W 124°38'5 9.3
2017-May-21 17:00N 46°56' W 124°44'4 8.9
2017-May-21 16:30N 46°56' W 124°51'5 8.5
2017-May-21 15:53N 46°56' W 124°59'4 3.4
2017-May-21 14:39N 46°55' W 125°05'2 3.3
2017-May-21 14:01N 46°53' W 125°05'1 2.3
2017-May-21 13:30N 46°54' W 125°04'3 6.7
2017-May-21 13:00N 46°57' W 125°03'2 4.0
2017-May-21 12:29N 46°59' W 125°02'1 1.8
2017-May-21 11:59N 46°60' W 125°02'2 3.9
2017-May-21 11:30N 46°58' W 125°02'3 5.5
2017-May-21 11:01N 46°55' W 125°03'3 5.0
2017-May-21 10:30N 46°53' W 125°03'0 1.0
2017-May-21 10:00N 46°53' W 125°02'1 1.2
2017-May-21 09:30N 46°54' W 125°02'1 1.0
2017-May-21 08:57N 46°54' W 125°02'0 1.0
2017-May-21 08:30N 46°54' W 125°02'1 1.2
2017-May-21 07:53N 46°55' W 125°01'1 1.2
2017-May-21 07:25N 46°56' W 125°01'1 1.3
2017-May-21 06:59N 46°56' W 125°01'1 1.4
2017-May-21 06:30N 46°57' W 125°01'1 1.4
2017-May-21 06:00N 46°58' W 125°00'1 1.4
2017-May-21 05:18N 46°59' W 125°01'1 1.2
2017-May-21 04:52N 46°59' W 125°01'0 1.2
2017-May-21 04:30N 46°59' W 125°01'3 3.5
2017-May-21 03:44N 47°02' W 125°00'2 8.3
2017-May-21 03:29N 47°04' W 124°59'1 1.6
2017-May-21 02:50N 47°03' W 124°58'2 3.7
2017-May-21 02:23N 47°03' W 125°00'0 0.9
2017-May-21 02:01N 47°03' W 125°01'1 2.3
2017-May-21 01:29N 47°02' W 125°01'2 3.2
2017-May-21 01:00N 47°00' W 125°00'7 2.9
2017-May-20 22:45N 46°55' W 125°07'1 2.8
2017-May-20 22:30N 46°55' W 125°07'0 0.1
2017-May-20 21:32N 46°55' W 125°07'0 8.7
2017-May-20 21:30N 46°55' W 125°07'4 7.3
2017-May-20 21:00N 46°54' W 125°02'9 8.2
2017-May-20 19:54N 46°47' W 124°53'1 1.5
2017-May-20 19:31N 46°47' W 124°52'1 2.8
2017-May-20 19:01N 46°45' W 124°52'1 3.0
2017-May-20 18:31N 46°44' W 124°51'1 2.9
2017-May-20 18:01N 46°43' W 124°50'1 3.0
2017-May-20 17:31N 46°42' W 124°48'2 3.0
2017-May-20 17:01N 46°40' W 124°48'1 3.0
2017-May-20 16:31N 46°39' W 124°46'0 0.9
2017-May-20 16:01N 46°39' W 124°46'5 9.4
2017-May-20 15:30N 46°43' W 124°50'5 9.4
2017-May-20 15:01N 46°47' W 124°52'4 8.6
2017-May-20 14:31N 46°51' W 124°56'8 8.0
2017-May-20 13:30N 46°53' W 124°45'4 8.8
2017-May-20 13:01N 46°54' W 124°39'5 9.0
2017-May-20 12:31N 46°54' W 124°32'5 9.2
2017-May-20 12:01N 46°54' W 124°25'5 9.0
2017-May-20 11:31N 46°54' W 124°19'5 9.3
2017-May-20 11:00N 46°55' W 124°12'4 7.4
2017-May-20 10:30N 46°54' W 124°06'0 0.2
2017-May-20 10:00N 46°54' W 124°06'0 0.0
2017-May-20 09:27N 46°54' W 124°06'0 0.0
2017-May-20 09:01N 46°54' W 124°06'0 0.0
2017-May-20 08:30N 46°54' W 124°06'0 0.0
2017-May-20 08:01N 46°54' W 124°06'0 0.0
2017-May-20 07:23N 46°54' W 124°06'0 0.0
2017-May-20 07:00N 46°54' W 124°06'0 0.0
2017-May-20 06:29N 46°54' W 124°06'0 0.0
2017-May-20 06:00N 46°54' W 124°06'0 0.0
2017-May-20 05:27N 46°54' W 124°06'0 0.0
2017-May-20 04:59N 46°54' W 124°06'0 0.0
2017-May-20 04:30N 46°54' W 124°06'0 0.0
2017-May-20 03:52N 46°54' W 124°06'0 0.0
2017-May-20 03:30N 46°54' W 124°06'0 0.0
2017-May-20 03:01N 46°54' W 124°06'0 0.0
2017-May-20 02:29N 46°54' W 124°06'0 0.0
2017-May-20 02:00N 46°54' W 124°06'0 0.0
2017-May-20 01:30N 46°54' W 124°06'0 0.0
2017-May-20 00:11N 46°54' W 124°06'0 0.0
2017-May-20 00:00N 46°54' W 124°06'0 0.0
2017-May-19 23:28N 46°54' W 124°06'0 0.0
2017-May-19 23:01N 46°54' W 124°06'0 0.0
2017-May-19 22:31N 46°54' W 124°06'0 0.0
2017-May-19 22:00N 46°54' W 124°06'0 0.0
2017-May-19 21:10N 46°54' W 124°06'0 0.0
2017-May-19 20:59N 46°54' W 124°06'0 0.0
2017-May-19 20:29N 46°54' W 124°06'0 0.0
2017-May-19 19:54N 46°54' W 124°06'0 0.2
2017-May-19 19:30N 46°54' W 124°06'0 0.0
2017-May-19 18:41N 46°54' W 124°06'0 0.0
2017-May-19 18:15N 46°54' W 124°06'0 0.0
2017-May-19 17:54N 46°54' W 124°06'0 0.0
2017-May-19 17:31N 46°54' W 124°06'0 0.0
2017-May-19 17:00N 46°54' W 124°06'0 0.0
2017-May-19 16:31N 46°54' W 124°06'0 0.0
2017-May-19 16:00N 46°54' W 124°06'0 0.0
2017-May-19 15:31N 46°54' W 124°06'0 0.0
2017-May-19 14:54N 46°54' W 124°06'0 0.0
2017-May-19 14:00N 46°54' W 124°06'0 0.0
2017-May-19 13:07N 46°54' W 124°06'0 0.0
2017-May-19 13:01N 46°54' W 124°06'0 0.0
2017-May-19 12:31N 46°54' W 124°06'0 0.0
2017-May-19 12:01N 46°54' W 124°06'0 0.0
2017-May-19 11:30N 46°54' W 124°06'0 0.0
2017-May-19 11:00N 46°54' W 124°06'0 0.0
2017-May-19 10:30N 46°54' W 124°06'0 0.0
2017-May-19 10:01N 46°54' W 124°06'0 0.0
2017-May-19 09:30N 46°54' W 124°06'0 0.0
2017-May-19 08:46N 46°54' W 124°06'0 0.0
2017-May-19 08:29N 46°54' W 124°06'0 0.0
2017-May-19 07:59N 46°54' W 124°06'0 0.0
2017-May-19 07:30N 46°54' W 124°06'0 0.0
2017-May-19 07:01N 46°54' W 124°06'0 0.0
2017-May-19 06:30N 46°54' W 124°06'0 0.0
2017-May-19 06:00N 46°54' W 124°06'0 0.0
2017-May-19 04:57N 46°54' W 124°06'0 0.0
2017-May-19 04:31N 46°54' W 124°06'0 0.0
2017-May-19 03:57N 46°54' W 124°06'0 0.0
2017-May-19 03:31N 46°54' W 124°06'0 0.0
2017-May-19 02:58N 46°54' W 124°06'1 1.8
2017-May-19 02:30N 46°55' W 124°07'3 6.0
2017-May-19 02:01N 46°55' W 124°12'3 6.2
2017-May-19 01:31N 46°54' W 124°16'3 6.4
2017-May-19 01:00N 46°53' W 124°20'3 6.4
2017-May-19 00:30N 46°52' W 124°25'3 6.3
2017-May-19 00:00N 46°51' W 124°29'2 4.4
2017-May-18 23:30N 46°50' W 124°32'2 4.3
2017-May-18 23:01N 46°49' W 124°35'3 5.0
2017-May-18 22:30N 46°48' W 124°39'3 5.2
2017-May-18 22:01N 46°48' W 124°42'3 5.3
2017-May-18 21:29N 46°47' W 124°46'3 5.4
2017-May-18 21:01N 46°45' W 124°49'1 2.8
2017-May-18 20:31N 46°44' W 124°51'1 1.2
2017-May-18 20:00N 46°44' W 124°51'1 3.0
2017-May-18 19:30N 46°43' W 124°49'1 3.0
2017-May-18 19:00N 46°41' W 124°48'1 2.4
2017-May-18 18:30N 46°42' W 124°49'3 5.6
2017-May-18 18:00N 46°45' W 124°51'4 7.4
2017-May-18 17:31N 46°42' W 124°48'3 5.2
2017-May-18 17:00N 46°40' W 124°46'2 3.8
2017-May-18 16:30N 46°41' W 124°48'2 3.4
2017-May-18 16:01N 46°43' W 124°49'1 2.3
2017-May-18 15:31N 46°44' W 124°50'2 3.4
2017-May-18 15:01N 46°45' W 124°51'2 3.3
2017-May-18 14:30N 46°47' W 124°52'2 2.1
2017-May-18 13:30N 46°49' W 124°53'0 0.7
2017-May-18 13:00N 46°49' W 124°54'4 8.0
2017-May-18 12:29N 46°53' W 124°56'1 1.6
2017-May-18 12:01N 46°53' W 124°55'3 6.6
2017-May-18 11:30N 46°54' W 124°50'2 4.9
2017-May-18 11:00N 46°54' W 124°47'2 4.9
2017-May-18 10:31N 46°54' W 124°43'2 4.4
2017-May-18 10:00N 46°54' W 124°40'2 4.0
2017-May-18 09:30N 46°54' W 124°37'2 4.1
2017-May-18 09:01N 46°54' W 124°34'2 3.6
2017-May-18 08:31N 46°54' W 124°31'2 3.4
2017-May-18 08:01N 46°55' W 124°29'2 3.5
2017-May-18 07:30N 46°55' W 124°26'2 4.2
2017-May-18 07:00N 46°54' W 124°23'2 4.1
2017-May-18 06:31N 46°55' W 124°20'3 5.1
2017-May-18 06:00N 46°55' W 124°17'4 8.1
2017-May-18 05:30N 46°55' W 124°11'3 5.0
2017-May-18 04:56N 46°54' W 124°06'0 0.0
2017-May-18 04:30N 46°54' W 124°06'0 0.0
2017-May-18 03:55N 46°54' W 124°06'0 0.0
2017-May-18 03:30N 46°54' W 124°06'0 0.0
2017-May-18 03:00N 46°54' W 124°06'0 0.0
2017-May-18 02:30N 46°54' W 124°06'0 0.0
2017-May-18 02:01N 46°54' W 124°06'0 0.0
2017-May-18 01:30N 46°54' W 124°06'0 0.0
2017-May-18 00:58N 46°54' W 124°06'0 0.0
2017-May-18 00:30N 46°54' W 124°06'0 0.0
2017-May-18 00:00N 46°54' W 124°06'0 0.0
2017-May-17 23:22N 46°54' W 124°06'0 0.0
2017-May-17 22:59N 46°54' W 124°06'0 0.0
2017-May-17 22:28N 46°54' W 124°06'0 0.0
2017-May-17 22:00N 46°54' W 124°06'0 0.0
2017-May-17 21:31N 46°54' W 124°06'0 0.0
2017-May-17 21:01N 46°54' W 124°06'0 0.0
2017-May-17 20:30N 46°54' W 124°06'0 0.0
2017-May-17 19:43N 46°54' W 124°06'0 0.0
2017-May-17 19:26N 46°54' W 124°06'0 0.0
2017-May-17 18:59N 46°54' W 124°06'0 0.0
2017-May-17 18:20N 46°54' W 124°06'0 0.0
2017-May-17 17:55N 46°54' W 124°06'0 0.0
2017-May-17 17:27N 46°54' W 124°06'0 0.0
2017-May-17 16:59N 46°54' W 124°06'0 0.0
2017-May-17 16:31N 46°54' W 124°06'0 0.0
2017-May-17 16:00N 46°54' W 124°06'2 2.8
2017-May-17 15:21N 46°55' W 124°09'2 5.5
2017-May-17 15:00N 46°55' W 124°12'10 8.6
2017-May-17 13:54N 47°03' W 124°20'75 3.6
2017-May-16 17:13N 48°11' W 125°06'6 8.6
2017-May-16 16:31N 48°16' W 125°00'0 9.4
2017-May-16 16:30N 48°16' W 125°00'8 9.4
2017-May-16 15:40N 48°22' W 124°52'1 9.1
2017-May-16 15:30N 48°23' W 124°50'4 8.5
2017-May-16 15:01N 48°25' W 124°45'4 8.1
2017-May-16 14:31N 48°25' W 124°39'8 8.3
2017-May-16 13:31N 48°22' W 124°28'5 9.2
2017-May-16 13:00N 48°20' W 124°22'5 9.2
2017-May-16 12:26N 48°18' W 124°15'5 9.7
2017-May-16 11:57N 48°15' W 124°08'4 9.3
2017-May-16 11:30N 48°14' W 124°03'4 8.9
2017-May-16 11:00N 48°12' W 123°57'4 8.8
2017-May-16 10:31N 48°12' W 123°50'5 9.4
2017-May-16 09:59N 48°12' W 123°43'5 9.3
2017-May-16 09:29N 48°12' W 123°36'5 9.6
2017-May-16 09:00N 48°12' W 123°29'4 9.0
2017-May-16 08:31N 48°11' W 123°22'510.0
2017-May-16 08:01N 48°11' W 123°15'611.0
2017-May-16 07:31N 48°12' W 123°07'5 9.9
2017-May-16 07:01N 48°11' W 122°59'510.4
2017-May-16 06:30N 48°10' W 122°51'11 9.3
2017-May-16 05:20N 48°04' W 122°38'2 7.1
2017-May-16 05:00N 48°02' W 122°37'510.6
2017-May-16 04:30N 47°58' W 122°33'5 9.5
2017-May-16 04:01N 47°54' W 122°28'510.5
2017-May-16 03:31N 47°49' W 122°26'510.4
2017-May-16 03:01N 47°44' W 122°25'4 8.3
2017-May-16 02:31N 47°40' W 122°24'0 0.1
2017-May-16 02:01N 47°40' W 122°24'0 0.5
2017-May-16 01:31N 47°40' W 122°23'0 1.0
2017-May-16 01:01N 47°40' W 122°23'0 0.0
2017-May-16 00:30N 47°40' W 122°23'0 0.0
2017-May-16 00:01N 47°40' W 122°23'0 0.0
2017-May-15 23:30N 47°40' W 122°23'0 0.0
2017-May-15 23:01N 47°40' W 122°23'0 0.0
2017-May-15 22:31N 47°40' W 122°23'0 0.0
2017-May-15 22:01N 47°40' W 122°23'0 0.0
2017-May-15 21:30N 47°40' W 122°23'0 0.0
2017-May-15 21:01N 47°40' W 122°23'0 0.0
2017-May-15 20:31N 47°40' W 122°23'0 0.0
2017-May-15 20:01N 47°40' W 122°23'0 0.0
2017-May-15 19:30N 47°40' W 122°23'0 0.0
2017-May-15 19:01N 47°40' W 122°23'0 0.0
2017-May-15 18:31N 47°40' W 122°23'0 0.0
2017-May-15 18:01N 47°40' W 122°23'0 0.0
2017-May-15 17:31N 47°40' W 122°23'0 0.0
2017-May-15 17:01N 47°40' W 122°23'0 0.0
2017-May-15 16:31N 47°40' W 122°23'0 0.0
2017-May-15 16:01N 47°40' W 122°23'0 0.0
2017-May-15 15:31N 47°40' W 122°23'0 0.0
2017-May-15 15:01N 47°40' W 122°23'0 0.0
2017-May-15 14:01N 47°40' W 122°23'0 0.0
2017-May-15 13:31N 47°40' W 122°23'0 0.0
2017-May-15 13:01N 47°40' W 122°23'0 0.0
2017-May-15 12:31N 47°40' W 122°23'0 0.0
2017-May-15 12:01N 47°40' W 122°23'0 0.0
2017-May-15 11:30N 47°40' W 122°23'0 0.0
2017-May-15 11:01N 47°40' W 122°23'0 0.0
2017-May-15 10:31N 47°40' W 122°23'0 0.0
2017-May-15 10:01N 47°40' W 122°23'0 0.0
2017-May-15 09:31N 47°40' W 122°23'0 0.0
2017-May-15 09:01N 47°40' W 122°23'0 0.0
2017-May-15 08:31N 47°40' W 122°23'0 0.0
2017-May-15 08:01N 47°40' W 122°23'0 0.0
2017-May-15 07:31N 47°40' W 122°23'0 0.0
2017-May-15 07:01N 47°40' W 122°23'0 0.0
2017-May-15 06:31N 47°40' W 122°23'0 0.0
2017-May-15 06:01N 47°40' W 122°23'0 0.0
2017-May-15 05:31N 47°40' W 122°23'0 0.0
2017-May-15 05:01N 47°40' W 122°23'0 0.0
2017-May-15 04:31N 47°40' W 122°23'0 0.0
2017-May-15 04:01N 47°40' W 122°23'0 0.0
2017-May-15 03:31N 47°40' W 122°23'0 0.0
2017-May-15 03:00N 47°40' W 122°23'0 0.0
2017-May-15 02:30N 47°40' W 122°23'0 0.0
2017-May-15 02:01N 47°40' W 122°23'0 0.0
2017-May-15 01:31N 47°40' W 122°23'0 0.0
2017-May-15 01:01N 47°40' W 122°23'0 0.0
2017-May-15 00:31N 47°40' W 122°23'0 0.0
2017-May-15 00:00N 47°40' W 122°23'0 0.0
2017-May-14 23:31N 47°40' W 122°23'0 0.0
2017-May-14 23:01N 47°40' W 122°23'0 0.0
2017-May-14 22:30N 47°40' W 122°23'0 0.0
2017-May-14 22:01N 47°40' W 122°23'0 0.0
2017-May-14 21:30N 47°40' W 122°23'0 0.0
2017-May-14 21:01N 47°40' W 122°23'0 0.0
2017-May-14 20:31N 47°40' W 122°23'0 0.0
2017-May-14 20:01N 47°40' W 122°23'0 0.0
2017-May-14 19:30N 47°40' W 122°23'0 0.0
2017-May-14 19:01N 47°40' W 122°23'0 0.0
2017-May-14 18:30N 47°40' W 122°23'0 0.0
2017-May-14 18:01N 47°40' W 122°23'0 0.0
2017-May-14 17:31N 47°40' W 122°23'0 0.0
2017-May-14 17:01N 47°40' W 122°23'0 0.0
2017-May-14 16:30N 47°40' W 122°23'0 0.0
2017-May-14 16:01N 47°40' W 122°23'0 0.0
2017-May-14 15:31N 47°40' W 122°23'0 0.0
2017-May-14 15:01N 47°40' W 122°23'0 0.0
2017-May-14 14:31N 47°40' W 122°23'0 0.0
2017-May-14 13:31N 47°40' W 122°23'0 0.0
2017-May-14 13:00N 47°40' W 122°23'0 0.0
2017-May-14 12:30N 47°40' W 122°23'0 0.0
2017-May-14 12:01N 47°40' W 122°23'0 0.0
2017-May-14 11:31N 47°40' W 122°23'0 0.0
2017-May-14 11:01N 47°40' W 122°23'0 0.0
2017-May-14 10:31N 47°40' W 122°23'0 0.0
2017-May-14 10:00N 47°40' W 122°23'0 0.0
2017-May-14 09:31N 47°40' W 122°23'0 0.0
2017-May-14 09:01N 47°40' W 122°23'0 0.0
2017-May-14 08:31N 47°40' W 122°23'0 0.0
2017-May-14 08:01N 47°40' W 122°23'0 0.0
2017-May-14 07:31N 47°40' W 122°23'0 0.0
2017-May-14 07:01N 47°40' W 122°23'0 0.0
2017-May-14 06:31N 47°40' W 122°23'0 0.0
2017-May-14 06:00N 47°40' W 122°23'0 0.0
2017-May-14 05:31N 47°40' W 122°23'0 0.0
2017-May-14 05:01N 47°40' W 122°23'0 0.0
2017-May-14 04:31N 47°40' W 122°23'0 0.0
2017-May-14 04:00N 47°40' W 122°23'0 0.0
2017-May-14 03:31N 47°40' W 122°23'0 0.0
2017-May-14 03:01N 47°40' W 122°23'0 0.0
2017-May-14 02:31N 47°40' W 122°23'0 0.0
2017-May-14 02:00N 47°40' W 122°23'0 0.0
2017-May-14 01:31N 47°40' W 122°23'0 0.0
2017-May-14 01:01N 47°40' W 122°23'0 0.0
2017-May-14 00:31N 47°40' W 122°23'0 0.0
2017-May-14 00:01N 47°40' W 122°23'0 0.0
2017-May-13 23:31N 47°40' W 122°23'0 0.0
2017-May-13 23:00N 47°40' W 122°23'0 0.0
2017-May-13 22:31N 47°40' W 122°23'0 0.0
2017-May-13 22:01N 47°40' W 122°23'0 0.0
2017-May-13 21:31N 47°40' W 122°23'0 0.0
2017-May-13 21:01N 47°40' W 122°23'0 0.0
2017-May-13 20:31N 47°40' W 122°23'0 0.0
2017-May-13 20:01N 47°40' W 122°23'0 0.0
2017-May-13 19:31N 47°40' W 122°23'0 0.0
2017-May-13 19:01N 47°40' W 122°23'0 0.0
2017-May-13 18:31N 47°40' W 122°23'0 0.0
2017-May-13 18:01N 47°40' W 122°23'0 0.0
2017-May-13 17:31N 47°40' W 122°23'0 0.0
2017-May-13 17:01N 47°40' W 122°23'0 0.0
2017-May-13 16:31N 47°40' W 122°23'0 0.0
2017-May-13 16:01N 47°40' W 122°23'0 0.0
2017-May-13 15:31N 47°40' W 122°23'0 0.0
2017-May-13 15:01N 47°40' W 122°23'0 0.0
2017-May-13 14:31N 47°40' W 122°23'0 0.0
2017-May-13 13:31N 47°40' W 122°23'0 0.0
2017-May-13 13:01N 47°40' W 122°23'0 0.0
2017-May-13 12:31N 47°40' W 122°23'0 0.0
2017-May-13 12:01N 47°40' W 122°23'0 0.0
2017-May-13 11:31N 47°40' W 122°23'0 0.0
2017-May-13 11:01N 47°40' W 122°23'0 0.0
2017-May-13 10:31N 47°40' W 122°23'0 0.0
2017-May-13 10:01N 47°40' W 122°23'0 0.0
2017-May-13 09:31N 47°40' W 122°23'0 0.0
2017-May-13 09:01N 47°40' W 122°23'0 0.0
2017-May-13 08:31N 47°40' W 122°23'0 0.0
2017-May-13 08:01N 47°40' W 122°23'0 0.0
2017-May-13 07:31N 47°40' W 122°23'0 0.0
2017-May-13 07:01N 47°40' W 122°23'0 0.0
2017-May-13 06:31N 47°40' W 122°23'0 0.0
2017-May-13 06:00N 47°40' W 122°23'0 0.0
2017-May-13 05:31N 47°40' W 122°23'0 0.0
2017-May-13 05:01N 47°40' W 122°23'0 0.0
2017-May-13 04:31N 47°40' W 122°23'0 0.0
2017-May-13 04:01N 47°40' W 122°23'0 0.0
2017-May-13 03:30N 47°40' W 122°23'0 0.0
2017-May-13 03:01N 47°40' W 122°23'0 0.0
2017-May-13 02:31N 47°40' W 122°23'0 0.0
2017-May-13 02:01N 47°40' W 122°23'0 0.0
2017-May-13 01:30N 47°40' W 122°23'0 0.0
2017-May-13 01:01N 47°40' W 122°23'0 0.0
2017-May-13 00:31N 47°40' W 122°23'0 0.0
2017-May-13 00:00N 47°40' W 122°23'0 0.0
2017-May-12 23:30N 47°40' W 122°23'0 0.0
2017-May-12 23:01N 47°40' W 122°23'0 0.0
2017-May-12 22:31N 47°40' W 122°23'0 0.0
2017-May-12 22:01N 47°40' W 122°23'0 0.0
2017-May-12 21:31N 47°40' W 122°23'0 0.0
2017-May-12 21:01N 47°40' W 122°23'  
Track history (hours):
 
Tides and Currents Weather Stations Pressure Air Temp Water Temp Dewpoint Dewpoint Depression Visibility Wind Speed Wind Dir Waves Ship Positions

Arctic Fury

Owner: Fury Group Inc, Seattle, WA. More information available from US FCC via Universal Licensing System and Coast Guard Vessel Documentation Center.

Last reported at 2017-May-22 21:00 UTC. Time now 2017-May-22 21:26 UTC.
Position N 46°30' W 124°31'.

Length 43 m; draft 5 m.

Type: Fishing. MMSI: 366468000.

Date/timePositionNaut miles runAvg speedWind from/ knotsBaromVisibWave heightAir tempDewpointWater temp
2017-May-22 21:00N 46°30' W 124°31'2 3.1
2017-May-22 20:30N 46°29' W 124°32'2 3.2
2017-May-22 20:01N 46°27' W 124°32'2 3.2
2017-May-22 19:30N 46°26' W 124°34'2 3.3
2017-May-22 19:01N 46°24' W 124°35'1 1.9
2017-May-22 18:31N 46°24' W 124°35'5 9.3
2017-May-22 18:00N 46°28' W 124°34'2 3.3
2017-May-22 17:31N 46°29' W 124°32'1 2.5
2017-May-22 17:00N 46°30' W 124°32'1 2.9
2017-May-22 16:31N 46°32' W 124°32'2 3.2
2017-May-22 16:01N 46°33' W 124°32'2 3.4
2017-May-22 15:30N 46°34' W 124°34'2 3.6
2017-May-22 15:01N 46°33' W 124°37'4 4.1
2017-May-22 14:01N 46°37' W 124°40'3 6.6
2017-May-22 13:30N 46°40' W 124°39'5 9.6
2017-May-22 13:01N 46°43' W 124°34'5 9.7
2017-May-22 12:31N 46°46' W 124°28'5 9.7
2017-May-22 12:01N 46°49' W 124°23'5 9.8
2017-May-22 11:30N 46°53' W 124°17'510.7
2017-May-22 11:01N 46°55' W 124°10'3 5.3
2017-May-22 10:30N 46°54' W 124°06'0 0.0
2017-May-22 10:01N 46°54' W 124°06'0 0.0
2017-May-22 09:30N 46°54' W 124°06'0 0.0
2017-May-22 09:00N 46°54' W 124°06'0 0.0
2017-May-22 08:30N 46°54' W 124°06'0 0.0
2017-May-22 08:01N 46°54' W 124°06'0 0.0
2017-May-22 07:30N 46°54' W 124°06'0 0.0
2017-May-22 07:00N 46°54' W 124°06'0 0.0
2017-May-22 06:30N 46°54' W 124°06'0 0.0
2017-May-22 06:00N 46°54' W 124°06'0 0.0
2017-May-22 05:31N 46°54' W 124°06'0 0.0
2017-May-22 04:59N 46°54' W 124°06'0 0.0
2017-May-22 04:31N 46°54' W 124°06'0 0.0
2017-May-22 04:01N 46°54' W 124°06'0 0.0
2017-May-22 03:30N 46°54' W 124°06'0 0.0
2017-May-22 02:59N 46°54' W 124°06'0 0.0
2017-May-22 02:28N 46°54' W 124°06'0 0.0
2017-May-22 02:00N 46°54' W 124°06'0 0.0
2017-May-22 01:28N 46°54' W 124°06'0 0.0
2017-May-22 01:01N 46°54' W 124°06'0 0.0
2017-May-22 00:30N 46°54' W 124°06'0 0.0
2017-May-21 23:59N 46°54' W 124°06'0 0.0
2017-May-21 23:31N 46°54' W 124°06'0 0.0
2017-May-21 23:00N 46°54' W 124°06'0 0.0
2017-May-21 22:30N 46°54' W 124°06'0 0.0
2017-May-21 21:57N 46°54' W 124°06'0 0.0
2017-May-21 21:30N 46°54' W 124°06'0 0.0
2017-May-21 21:00N 46°54' W 124°06'0 0.0
2017-May-21 20:30N 46°54' W 124°06'0 0.4
2017-May-21 20:00N 46°55' W 124°06'3 6.6
2017-May-21 19:31N 46°55' W 124°11'4 8.7
2017-May-21 19:00N 46°55' W 124°18'5 9.1
2017-May-21 18:30N 46°55' W 124°24'5 9.3
2017-May-21 18:00N 46°55' W 124°31'4 9.1
2017-May-21 17:30N 46°55' W 124°38'5 9.3
2017-May-21 17:00N 46°56' W 124°44'4 8.9
2017-May-21 16:30N 46°56' W 124°51'5 8.5
2017-May-21 15:53N 46°56' W 124°59'4 3.4
2017-May-21 14:39N 46°55' W 125°05'2 3.3
2017-May-21 14:01N 46°53' W 125°05'1 2.3
2017-May-21 13:30N 46°54' W 125°04'3 6.7
2017-May-21 13:00N 46°57' W 125°03'2 4.0
2017-May-21 12:29N 46°59' W 125°02'1 1.8
2017-May-21 11:59N 46°60' W 125°02'2 3.9
2017-May-21 11:30N 46°58' W 125°02'3 5.5
2017-May-21 11:01N 46°55' W 125°03'3 5.0
2017-May-21 10:30N 46°53' W 125°03'0 1.0
2017-May-21 10:00N 46°53' W 125°02'1 1.2
2017-May-21 09:30N 46°54' W 125°02'1 1.0
2017-May-21 08:57N 46°54' W 125°02'0 1.0
2017-May-21 08:30N 46°54' W 125°02'1 1.2
2017-May-21 07:53N 46°55' W 125°01'1 1.2
2017-May-21 07:25N 46°56' W 125°01'1 1.3
2017-May-21 06:59N 46°56' W 125°01'1 1.4
2017-May-21 06:30N 46°57' W 125°01'1 1.4
2017-May-21 06:00N 46°58' W 125°00'1 1.4
2017-May-21 05:18N 46°59' W 125°01'1 1.2
2017-May-21 04:52N 46°59' W 125°01'0 1.2
2017-May-21 04:30N 46°59' W 125°01'3 3.5
2017-May-21 03:44N 47°02' W 125°00'2 8.3
2017-May-21 03:29N 47°04' W 124°59'1 1.6
2017-May-21 02:50N 47°03' W 124°58'2 3.7
2017-May-21 02:23N 47°03' W 125°00'0 0.9
2017-May-21 02:01N 47°03' W 125°01'1 2.3
2017-May-21 01:29N 47°02' W 125°01'2 3.2
2017-May-21 01:00N 47°00' W 125°00'7 2.9
2017-May-20 22:45N 46°55' W 125°07'1 2.8
2017-May-20 22:30N 46°55' W 125°07'0 0.1
2017-May-20 21:32N 46°55' W 125°07'0 8.7
2017-May-20 21:30N 46°55' W 125°07'4 7.3
2017-May-20 21:00N 46°54' W 125°02'9 8.2
2017-May-20 19:54N 46°47' W 124°53'1 1.5
2017-May-20 19:31N 46°47' W 124°52'1 2.8
2017-May-20 19:01N 46°45' W 124°52'1 3.0
2017-May-20 18:31N 46°44' W 124°51'1 2.9
2017-May-20 18:01N 46°43' W 124°50'1 3.0
2017-May-20 17:31N 46°42' W 124°48'2 3.0
2017-May-20 17:01N 46°40' W 124°48'1 3.0
2017-May-20 16:31N 46°39' W 124°46'0 0.9
2017-May-20 16:01N 46°39' W 124°46'5 9.4
2017-May-20 15:30N 46°43' W 124°50'5 9.4
2017-May-20 15:01N 46°47' W 124°52'4 8.6
2017-May-20 14:31N 46°51' W 124°56'8 8.0
2017-May-20 13:30N 46°53' W 124°45'4 8.8
2017-May-20 13:01N 46°54' W 124°39'5 9.0
2017-May-20 12:31N 46°54' W 124°32'5 9.2
2017-May-20 12:01N 46°54' W 124°25'5 9.0
2017-May-20 11:31N 46°54' W 124°19'5 9.3
2017-May-20 11:00N 46°55' W 124°12'4 7.4
2017-May-20 10:30N 46°54' W 124°06'0 0.2
2017-May-20 10:00N 46°54' W 124°06'0 0.0
2017-May-20 09:27N 46°54' W 124°06'0 0.0
2017-May-20 09:01N 46°54' W 124°06'0 0.0
2017-May-20 08:30N 46°54' W 124°06'0 0.0
2017-May-20 08:01N 46°54' W 124°06'0 0.0
2017-May-20 07:23N 46°54' W 124°06'0 0.0
2017-May-20 07:00N 46°54' W 124°06'0 0.0
2017-May-20 06:29N 46°54' W 124°06'0 0.0
2017-May-20 06:00N 46°54' W 124°06'0 0.0
2017-May-20 05:27N 46°54' W 124°06'0 0.0
2017-May-20 04:59N 46°54' W 124°06'0 0.0
2017-May-20 04:30N 46°54' W 124°06'0 0.0
2017-May-20 03:52N 46°54' W 124°06'0 0.0
2017-May-20 03:30N 46°54' W 124°06'0 0.0
2017-May-20 03:01N 46°54' W 124°06'0 0.0
2017-May-20 02:29N 46°54' W 124°06'0 0.0
2017-May-20 02:00N 46°54' W 124°06'0 0.0
2017-May-20 01:30N 46°54' W 124°06'0 0.0
2017-May-20 00:11N 46°54' W 124°06'0 0.0
2017-May-20 00:00N 46°54' W 124°06'0 0.0
2017-May-19 23:28N 46°54' W 124°06'0 0.0
2017-May-19 23:01N 46°54' W 124°06'0 0.0
2017-May-19 22:31N 46°54' W 124°06'0 0.0
2017-May-19 22:00N 46°54' W 124°06'0 0.0
2017-May-19 21:10N 46°54' W 124°06'0 0.0
2017-May-19 20:59N 46°54' W 124°06'0 0.0
2017-May-19 20:29N 46°54' W 124°06'0 0.0
2017-May-19 19:54N 46°54' W 124°06'0 0.2
2017-May-19 19:30N 46°54' W 124°06'0 0.0
2017-May-19 18:41N 46°54' W 124°06'0 0.0
2017-May-19 18:15N 46°54' W 124°06'0 0.0
2017-May-19 17:54N 46°54' W 124°06'0 0.0
2017-May-19 17:31N 46°54' W 124°06'0 0.0
2017-May-19 17:00N 46°54' W 124°06'0 0.0
2017-May-19 16:31N 46°54' W 124°06'0 0.0
2017-May-19 16:00N 46°54' W 124°06'0 0.0
2017-May-19 15:31N 46°54' W 124°06'0 0.0
2017-May-19 14:54N 46°54' W 124°06'0 0.0
2017-May-19 14:00N 46°54' W 124°06'0 0.0
2017-May-19 13:07N 46°54' W 124°06'0 0.0
2017-May-19 13:01N 46°54' W 124°06'0 0.0
2017-May-19 12:31N 46°54' W 124°06'0 0.0
2017-May-19 12:01N 46°54' W 124°06'0 0.0
2017-May-19 11:30N 46°54' W 124°06'0 0.0
2017-May-19 11:00N 46°54' W 124°06'0 0.0
2017-May-19 10:30N 46°54' W 124°06'0 0.0
2017-May-19 10:01N 46°54' W 124°06'0 0.0
2017-May-19 09:30N 46°54' W 124°06'0 0.0
2017-May-19 08:46N 46°54' W 124°06'0 0.0
2017-May-19 08:29N 46°54' W 124°06'0 0.0
2017-May-19 07:59N 46°54' W 124°06'0 0.0
2017-May-19 07:30N 46°54' W 124°06'0 0.0
2017-May-19 07:01N 46°54' W 124°06'0 0.0
2017-May-19 06:30N 46°54' W 124°06'0 0.0
2017-May-19 06:00N 46°54' W 124°06'0 0.0
2017-May-19 04:57N 46°54' W 124°06'0 0.0
2017-May-19 04:31N 46°54' W 124°06'0 0.0
2017-May-19 03:57N 46°54' W 124°06'0 0.0
2017-May-19 03:31N 46°54' W 124°06'0 0.0
2017-May-19 02:58N 46°54' W 124°06'1 1.8
2017-May-19 02:30N 46°55' W 124°07'3 6.0
2017-May-19 02:01N 46°55' W 124°12'3 6.2
2017-May-19 01:31N 46°54' W 124°16'3 6.4
2017-May-19 01:00N 46°53' W 124°20'3 6.4
2017-May-19 00:30N 46°52' W 124°25'3 6.3
2017-May-19 00:00N 46°51' W 124°29'2 4.4
2017-May-18 23:30N 46°50' W 124°32'2 4.3
2017-May-18 23:01N 46°49' W 124°35'3 5.0
2017-May-18 22:30N 46°48' W 124°39'3 5.2
2017-May-18 22:01N 46°48' W 124°42'3 5.3
2017-May-18 21:29N 46°47' W 124°46'3 5.4
2017-May-18 21:01N 46°45' W 124°49'1 2.8
2017-May-18 20:31N 46°44' W 124°51'1 1.2
2017-May-18 20:00N 46°44' W 124°51'1 3.0
2017-May-18 19:30N 46°43' W 124°49'1 3.0
2017-May-18 19:00N 46°41' W 124°48'1 2.4
2017-May-18 18:30N 46°42' W 124°49'3 5.6
2017-May-18 18:00N 46°45' W 124°51'4 7.4
2017-May-18 17:31N 46°42' W 124°48'3 5.2
2017-May-18 17:00N 46°40' W 124°46'2 3.8
2017-May-18 16:30N 46°41' W 124°48'2 3.4
2017-May-18 16:01N 46°43' W 124°49'1 2.3
2017-May-18 15:31N 46°44' W 124°50'2 3.4
2017-May-18 15:01N 46°45' W 124°51'2 3.3
2017-May-18 14:30N 46°47' W 124°52'2 2.1
2017-May-18 13:30N 46°49' W 124°53'0 0.7
2017-May-18 13:00N 46°49' W 124°54'4 8.0
2017-May-18 12:29N 46°53' W 124°56'1 1.6
2017-May-18 12:01N 46°53' W 124°55'3 6.6
2017-May-18 11:30N 46°54' W 124°50'2 4.9
2017-May-18 11:00N 46°54' W 124°47'2 4.9
2017-May-18 10:31N 46°54' W 124°43'2 4.4
2017-May-18 10:00N 46°54' W 124°40'2 4.0
2017-May-18 09:30N 46°54' W 124°37'2 4.1
2017-May-18 09:01N 46°54' W 124°34'2 3.6
2017-May-18 08:31N 46°54' W 124°31'2 3.4
2017-May-18 08:01N 46°55' W 124°29'2 3.5
2017-May-18 07:30N 46°55' W 124°26'2 4.2
2017-May-18 07:00N 46°54' W 124°23'2 4.1
2017-May-18 06:31N 46°55' W 124°20'3 5.1
2017-May-18 06:00N 46°55' W 124°17'4 8.1
2017-May-18 05:30N 46°55' W 124°11'3 5.0
2017-May-18 04:56N 46°54' W 124°06'0 0.0
2017-May-18 04:30N 46°54' W 124°06'0 0.0
2017-May-18 03:55N 46°54' W 124°06'0 0.0
2017-May-18 03:30N 46°54' W 124°06'0 0.0
2017-May-18 03:00N 46°54' W 124°06'0 0.0
2017-May-18 02:30N 46°54' W 124°06'0 0.0
2017-May-18 02:01N 46°54' W 124°06'0 0.0
2017-May-18 01:30N 46°54' W 124°06'0 0.0
2017-May-18 00:58N 46°54' W 124°06'0 0.0
2017-May-18 00:30N 46°54' W 124°06'0 0.0
2017-May-18 00:00N 46°54' W 124°06'0 0.0
2017-May-17 23:22N 46°54' W 124°06'0 0.0
2017-May-17 22:59N 46°54' W 124°06'0 0.0
2017-May-17 22:28N 46°54' W 124°06'0 0.0
2017-May-17 22:00N 46°54' W 124°06'0 0.0
2017-May-17 21:31N 46°54' W 124°06'0 0.0
2017-May-17 21:01N 46°54' W 124°06'0 0.0
2017-May-17 20:30N 46°54' W 124°06'0 0.0
2017-May-17 19:43N 46°54' W 124°06'0 0.0
2017-May-17 19:26N 46°54' W 124°06'0 0.0
2017-May-17 18:59N 46°54' W 124°06'0 0.0
2017-May-17 18:20N 46°54' W 124°06'0 0.0
2017-May-17 17:55N 46°54' W 124°06'0 0.0
2017-May-17 17:27N 46°54' W 124°06'0 0.0
2017-May-17 16:59N 46°54' W 124°06'0 0.0
2017-May-17 16:31N 46°54' W 124°06'0 0.0
2017-May-17 16:00N 46°54' W 124°06'2 2.8
2017-May-17 15:21N 46°55' W 124°09'2 5.5
2017-May-17 15:00N 46°55' W 124°12'10 8.6
2017-May-17 13:54N 47°03' W 124°20'75 3.6
2017-May-16 17:13N 48°11' W 125°06'6 8.6
2017-May-16 16:31N 48°16' W 125°00'0 9.4
2017-May-16 16:30N 48°16' W 125°00'8 9.4
2017-May-16 15:40N 48°22' W 124°52'1 9.1
2017-May-16 15:30N 48°23' W 124°50'4 8.5
2017-May-16 15:01N 48°25' W 124°45'4 8.1
2017-May-16 14:31N 48°25' W 124°39'8 8.3
2017-May-16 13:31N 48°22' W 124°28'5 9.2
2017-May-16 13:00N 48°20' W 124°22'5 9.2
2017-May-16 12:26N 48°18' W 124°15'5 9.7
2017-May-16 11:57N 48°15' W 124°08'4 9.3
2017-May-16 11:30N 48°14' W 124°03'4 8.9
2017-May-16 11:00N 48°12' W 123°57'4 8.8
2017-May-16 10:31N 48°12' W 123°50'5 9.4
2017-May-16 09:59N 48°12' W 123°43'5 9.3
2017-May-16 09:29N 48°12' W 123°36'5 9.6
2017-May-16 09:00N 48°12' W 123°29'4 9.0
2017-May-16 08:31N 48°11' W 123°22'510.0
2017-May-16 08:01N 48°11' W 123°15'611.0
2017-May-16 07:31N 48°12' W 123°07'5 9.9
2017-May-16 07:01N 48°11' W 122°59'510.4
2017-May-16 06:30N 48°10' W 122°51'11 9.3
2017-May-16 05:20N 48°04' W 122°38'2 7.1
2017-May-16 05:00N 48°02' W 122°37'510.6
2017-May-16 04:30N 47°58' W 122°33'5 9.5
2017-May-16 04:01N 47°54' W 122°28'510.5
2017-May-16 03:31N 47°49' W 122°26'510.4
2017-May-16 03:01N 47°44' W 122°25'4 8.3
2017-May-16 02:31N 47°40' W 122°24'0 0.1
2017-May-16 02:01N 47°40' W 122°24'0 0.5
2017-May-16 01:31N 47°40' W 122°23'0 1.0
2017-May-16 01:01N 47°40' W 122°23'0 0.0
2017-May-16 00:30N 47°40' W 122°23'0 0.0
2017-May-16 00:01N 47°40' W 122°23'0 0.0
2017-May-15 23:30N 47°40' W 122°23'0 0.0
2017-May-15 23:01N 47°40' W 122°23'0 0.0
2017-May-15 22:31N 47°40' W 122°23'0 0.0
2017-May-15 22:01N 47°40' W 122°23'0 0.0
2017-May-15 21:30N 47°40' W 122°23'0 0.0
2017-May-15 21:01N 47°40' W 122°23'0 0.0
2017-May-15 20:31N 47°40' W 122°23'0 0.0
2017-May-15 20:01N 47°40' W 122°23'0 0.0
2017-May-15 19:30N 47°40' W 122°23'0 0.0
2017-May-15 19:01N 47°40' W 122°23'0 0.0
2017-May-15 18:31N 47°40' W 122°23'0 0.0
2017-May-15 18:01N 47°40' W 122°23'0 0.0
2017-May-15 17:31N 47°40' W 122°23'0 0.0
2017-May-15 17:01N 47°40' W 122°23'0 0.0
2017-May-15 16:31N 47°40' W 122°23'0 0.0
2017-May-15 16:01N 47°40' W 122°23'0 0.0
2017-May-15 15:31N 47°40' W 122°23'0 0.0
2017-May-15 15:01N 47°40' W 122°23'0 0.0
2017-May-15 14:01N 47°40' W 122°23'0 0.0
2017-May-15 13:31N 47°40' W 122°23'0 0.0
2017-May-15 13:01N 47°40' W 122°23'0 0.0
2017-May-15 12:31N 47°40' W 122°23'0 0.0
2017-May-15 12:01N 47°40' W 122°23'0 0.0
2017-May-15 11:30N 47°40' W 122°23'0 0.0
2017-May-15 11:01N 47°40' W 122°23'0 0.0
2017-May-15 10:31N 47°40' W 122°23'0 0.0
2017-May-15 10:01N 47°40' W 122°23'0 0.0
2017-May-15 09:31N 47°40' W 122°23'0 0.0
2017-May-15 09:01N 47°40' W 122°23'0 0.0
2017-May-15 08:31N 47°40' W 122°23'0 0.0
2017-May-15 08:01N 47°40' W 122°23'0 0.0
2017-May-15 07:31N 47°40' W 122°23'0 0.0
2017-May-15 07:01N 47°40' W 122°23'0 0.0
2017-May-15 06:31N 47°40' W 122°23'0 0.0
2017-May-15 06:01N 47°40' W 122°23'0 0.0
2017-May-15 05:31N 47°40' W 122°23'0 0.0
2017-May-15 05:01N 47°40' W 122°23'0 0.0
2017-May-15 04:31N 47°40' W 122°23'0 0.0
2017-May-15 04:01N 47°40' W 122°23'0 0.0
2017-May-15 03:31N 47°40' W 122°23'0 0.0
2017-May-15 03:00N 47°40' W 122°23'0 0.0
2017-May-15 02:30N 47°40' W 122°23'0 0.0
2017-May-15 02:01N 47°40' W 122°23'0 0.0
2017-May-15 01:31N 47°40' W 122°23'0 0.0
2017-May-15 01:01N 47°40' W 122°23'0 0.0
2017-May-15 00:31N 47°40' W 122°23'0 0.0
2017-May-15 00:00N 47°40' W 122°23'0 0.0
2017-May-14 23:31N 47°40' W 122°23'0 0.0
2017-May-14 23:01N 47°40' W 122°23'0 0.0
2017-May-14 22:30N 47°40' W 122°23'0 0.0
2017-May-14 22:01N 47°40' W 122°23'0 0.0
2017-May-14 21:30N 47°40' W 122°23'0 0.0
2017-May-14 21:01N 47°40' W 122°23'0 0.0
2017-May-14 20:31N 47°40' W 122°23'0 0.0
2017-May-14 20:01N 47°40' W 122°23'0 0.0
2017-May-14 19:30N 47°40' W 122°23'0 0.0
2017-May-14 19:01N 47°40' W 122°23'0 0.0
2017-May-14 18:30N 47°40' W 122°23'0 0.0
2017-May-14 18:01N 47°40' W 122°23'0 0.0
2017-May-14 17:31N 47°40' W 122°23'0 0.0
2017-May-14 17:01N 47°40' W 122°23'0 0.0
2017-May-14 16:30N 47°40' W 122°23'0 0.0
2017-May-14 16:01N 47°40' W 122°23'0 0.0
2017-May-14 15:31N 47°40' W 122°23'0 0.0
2017-May-14 15:01N 47°40' W 122°23'0 0.0
2017-May-14 14:31N 47°40' W 122°23'0 0.0
2017-May-14 13:31N 47°40' W 122°23'0 0.0
2017-May-14 13:00N 47°40' W 122°23'0 0.0
2017-May-14 12:30N 47°40' W 122°23'0 0.0
2017-May-14 12:01N 47°40' W 122°23'0 0.0
2017-May-14 11:31N 47°40' W 122°23'0 0.0
2017-May-14 11:01N 47°40' W 122°23'0 0.0
2017-May-14 10:31N 47°40' W 122°23'0 0.0
2017-May-14 10:00N 47°40' W 122°23'0 0.0
2017-May-14 09:31N 47°40' W 122°23'0 0.0
2017-May-14 09:01N 47°40' W 122°23'0 0.0
2017-May-14 08:31N 47°40' W 122°23'0 0.0
2017-May-14 08:01N 47°40' W 122°23'0 0.0
2017-May-14 07:31N 47°40' W 122°23'0 0.0
2017-May-14 07:01N 47°40' W 122°23'0 0.0
2017-May-14 06:31N 47°40' W 122°23'0 0.0
2017-May-14 06:00N 47°40' W 122°23'0 0.0
2017-May-14 05:31N 47°40' W 122°23'0 0.0
2017-May-14 05:01N 47°40' W 122°23'0 0.0
2017-May-14 04:31N 47°40' W 122°23'0 0.0
2017-May-14 04:00N 47°40' W 122°23'0 0.0
2017-May-14 03:31N 47°40' W 122°23'0 0.0
2017-May-14 03:01N 47°40' W 122°23'0 0.0
2017-May-14 02:31N 47°40' W 122°23'0 0.0
2017-May-14 02:00N 47°40' W 122°23'0 0.0
2017-May-14 01:31N 47°40' W 122°23'0 0.0
2017-May-14 01:01N 47°40' W 122°23'0 0.0
2017-May-14 00:31N 47°40' W 122°23'0 0.0
2017-May-14 00:01N 47°40' W 122°23'0 0.0
2017-May-13 23:31N 47°40' W 122°23'0 0.0
2017-May-13 23:00N 47°40' W 122°23'0 0.0
2017-May-13 22:31N 47°40' W 122°23'0 0.0
2017-May-13 22:01N 47°40' W 122°23'0 0.0
2017-May-13 21:31N 47°40' W 122°23'0 0.0
2017-May-13 21:01N 47°40' W 122°23'0 0.0
2017-May-13 20:31N 47°40' W 122°23'0 0.0
2017-May-13 20:01N 47°40' W 122°23'0 0.0
2017-May-13 19:31N 47°40' W 122°23'0 0.0
2017-May-13 19:01N 47°40' W 122°23'0 0.0
2017-May-13 18:31N 47°40' W 122°23'0 0.0
2017-May-13 18:01N 47°40' W 122°23'0 0.0
2017-May-13 17:31N 47°40' W 122°23'0 0.0
2017-May-13 17:01N 47°40' W 122°23'0 0.0
2017-May-13 16:31N 47°40' W 122°23'0 0.0
2017-May-13 16:01N 47°40' W 122°23'0 0.0
2017-May-13 15:31N 47°40' W 122°23'0 0.0
2017-May-13 15:01N 47°40' W 122°23'0 0.0
2017-May-13 14:31N 47°40' W 122°23'0 0.0
2017-May-13 13:31N 47°40' W 122°23'0 0.0
2017-May-13 13:01N 47°40' W 122°23'0 0.0
2017-May-13 12:31N 47°40' W 122°23'0 0.0
2017-May-13 12:01N 47°40' W 122°23'0 0.0
2017-May-13 11:31N 47°40' W 122°23'0 0.0
2017-May-13 11:01N 47°40' W 122°23'0 0.0
2017-May-13 10:31N 47°40' W 122°23'0 0.0
2017-May-13 10:01N 47°40' W 122°23'0 0.0
2017-May-13 09:31N 47°40' W 122°23'0 0.0
2017-May-13 09:01N 47°40' W 122°23'0 0.0
2017-May-13 08:31N 47°40' W 122°23'0 0.0
2017-May-13 08:01N 47°40' W 122°23'0 0.0
2017-May-13 07:31N 47°40' W 122°23'0 0.0
2017-May-13 07:01N 47°40' W 122°23'0 0.0
2017-May-13 06:31N 47°40' W 122°23'0 0.0
2017-May-13 06:00N 47°40' W 122°23'0 0.0
2017-May-13 05:31N 47°40' W 122°23'0 0.0
2017-May-13 05:01N 47°40' W 122°23'0 0.0
2017-May-13 04:31N 47°40' W 122°23'0 0.0
2017-May-13 04:01N 47°40' W 122°23'0 0.0
2017-May-13 03:30N 47°40' W 122°23'0 0.0
2017-May-13 03:01N 47°40' W 122°23'0 0.0
2017-May-13 02:31N 47°40' W 122°23'0 0.0
2017-May-13 02:01N 47°40' W 122°23'0 0.0
2017-May-13 01:30N 47°40' W 122°23'0 0.0
2017-May-13 01:01N 47°40' W 122°23'0 0.0
2017-May-13 00:31N 47°40' W 122°23'0 0.0
2017-May-13 00:00N 47°40' W 122°23'0 0.0
2017-May-12 23:30N 47°40' W 122°23'0 0.0
2017-May-12 23:01N 47°40' W 122°23'0 0.0
2017-May-12 22:31N 47°40' W 122°23'0 0.0
2017-May-12 22:01N 47°40' W 122°23'0 0.0
2017-May-12 21:31N 47°40' W 122°23'0 0.0
2017-May-12 21:01N 47°40' W 122°23'  

Dump ship's entire track history